createdAt,value
2023-04-05T00:02:46.344Z,58.79
2023-04-05T00:07:54.389Z,59.13
2023-04-05T00:12:57.617Z,59.31
2023-04-05T00:18:03.727Z,59.56
2023-04-05T00:23:10.415Z,59.73
2023-04-05T00:28:13.712Z,59.79
2023-04-05T00:33:16.473Z,59.78
2023-04-05T00:38:20.849Z,59.90
2023-04-05T00:43:23.588Z,60.20
2023-04-05T00:48:26.923Z,60.20
2023-04-05T00:53:32.021Z,60.31
2023-04-05T00:58:34.887Z,60.44
2023-04-05T01:03:39.883Z,60.58
2023-04-05T01:08:53.377Z,60.58
2023-04-05T01:13:59.697Z,60.75
2023-04-05T01:19:03.956Z,60.86
2023-04-05T01:24:21.037Z,60.95
2023-04-05T01:29:47.031Z,60.99
2023-04-05T01:34:55.061Z,61.12
2023-04-05T01:39:59.618Z,61.16
2023-04-05T01:45:03.899Z,61.39
2023-04-05T01:50:09.375Z,61.80
2023-04-05T01:55:12.174Z,61.59
2023-04-05T02:00:17.002Z,61.84
2023-04-05T02:05:21.514Z,62.06
2023-04-05T02:10:25.398Z,62.07
2023-04-05T02:15:32.654Z,62.10
2023-04-05T02:20:35.552Z,62.13
2023-04-05T02:25:38.391Z,62.52
2023-04-05T02:30:42.784Z,62.50
2023-04-05T02:35:48.976Z,62.53
2023-04-05T02:40:54.076Z,62.62
2023-04-05T02:45:58.227Z,62.52
2023-04-05T02:51:01.517Z,62.69
2023-04-05T02:56:04.314Z,62.80
2023-04-05T03:01:12.037Z,62.72
2023-04-05T03:06:15.378Z,62.72
2023-04-05T03:11:22.541Z,62.85
2023-04-05T03:16:31.956Z,62.79
2023-04-05T03:21:40.862Z,62.89
2023-04-05T03:26:55.455Z,63.02
2023-04-05T03:32:01.965Z,62.94
2023-04-05T03:37:04.945Z,63.10
2023-04-05T03:42:20.762Z,63.20
2023-04-05T03:47:24.973Z,63.23
2023-04-05T03:52:29.030Z,63.22
2023-04-05T03:57:32.830Z,63.33
2023-04-05T04:02:46.865Z,63.30
2023-04-05T04:07:54.538Z,63.31
2023-04-05T04:12:58.926Z,63.38
2023-04-05T04:18:07.215Z,63.43
2023-04-05T04:23:27.301Z,63.56
2023-04-05T04:28:48.715Z,63.34
2023-04-05T04:34:22.233Z,63.47
2023-04-05T04:39:45.078Z,63.50
2023-04-05T04:45:07.531Z,63.67
2023-04-05T04:50:37.887Z,63.80
2023-04-05T04:55:42.335Z,63.46
2023-04-05T05:00:45.634Z,63.75
2023-04-05T05:05:51.213Z,63.93
2023-04-05T05:10:58.768Z,64.06
2023-04-05T05:16:02.377Z,64.06
2023-04-05T05:21:06.687Z,64.05
2023-04-05T05:26:09.674Z,64.15
2023-04-05T05:31:14.203Z,64.03
2023-04-05T05:36:20.223Z,64.07
2023-04-05T05:41:23.108Z,64.22
2023-04-05T05:46:26.796Z,64.49
2023-04-05T05:51:32.507Z,64.22
2023-04-05T05:56:35.403Z,64.33
2023-04-05T06:01:38.203Z,64.38
2023-04-05T06:06:43.710Z,64.45
2023-04-05T06:11:55.954Z,64.46
2023-04-05T06:16:59.578Z,64.32
2023-04-05T06:22:03.769Z,64.46
2023-04-05T06:27:06.579Z,64.38
2023-04-05T06:32:09.407Z,64.41
2023-04-05T06:37:13.670Z,64.32
2023-04-05T06:42:16.625Z,64.38
2023-04-05T06:47:27.892Z,64.32
2023-04-05T06:52:32.131Z,64.47
2023-04-05T06:57:35.276Z,64.41
2023-04-05T07:02:38.300Z,64.06
2023-04-05T07:07:44.385Z,45.46
2023-04-05T07:12:47.271Z,44.48
2023-04-05T07:17:50.336Z,46.47
2023-04-05T07:22:54.492Z,47.40
2023-04-05T07:27:57.628Z,48.59
2023-04-05T07:33:00.490Z,49.84
2023-04-05T07:38:04.660Z,50.93
2023-04-05T07:43:07.476Z,51.62
2023-04-05T07:48:10.219Z,52.21
2023-04-05T07:53:14.431Z,52.85
2023-04-05T07:58:17.604Z,53.44
2023-04-05T08:03:20.719Z,53.87
2023-04-05T08:08:26.184Z,54.44
2023-04-05T08:13:29.119Z,54.62
2023-04-05T08:18:31.887Z,54.78
2023-04-05T08:23:36.067Z,55.28
2023-04-05T08:28:38.814Z,55.46
2023-04-05T08:33:41.572Z,55.90
2023-04-05T08:38:45.804Z,56.32
2023-04-05T08:43:56.845Z,56.34
2023-04-05T08:49:00.648Z,56.66
2023-04-05T08:54:05.624Z,56.82
2023-04-05T08:59:11.098Z,56.73
2023-04-05T09:04:19.149Z,56.88
2023-04-05T09:09:24.330Z,57.12
2023-04-05T09:14:28.972Z,57.16
2023-04-05T09:19:31.996Z,57.38
2023-04-05T09:24:41.038Z,57.56
2023-04-05T09:29:45.552Z,57.58
2023-04-05T09:34:49.565Z,57.73
2023-04-05T09:40:07.008Z,57.81
2023-04-05T09:45:10.579Z,57.94
2023-04-05T09:50:21.676Z,58.00
2023-04-05T09:55:30.137Z,58.06
2023-04-05T10:00:33.949Z,58.22
2023-04-05T10:05:37.042Z,58.25
2023-04-05T10:10:48.524Z,58.14
2023-04-05T10:15:53.878Z,58.32
2023-04-05T10:20:59.303Z,58.53
2023-04-05T10:26:11.165Z,58.67
2023-04-05T10:31:36.396Z,58.74
2023-04-05T10:36:46.881Z,58.52
2023-04-05T10:41:57.770Z,58.52
2023-04-05T10:47:03.086Z,58.90
2023-04-05T10:52:07.571Z,60.35
2023-04-05T10:57:12.518Z,61.40
2023-04-05T11:02:16.491Z,48.01
2023-04-05T11:07:20.347Z,39.28
2023-04-05T11:12:56.734Z,42.08
2023-04-05T11:18:12.770Z,43.91
2023-04-05T11:23:17.339Z,45.13
2023-04-05T11:28:29.322Z,45.93
2023-04-05T11:33:56.912Z,46.54
2023-04-05T11:39:28.800Z,47.40
2023-04-05T11:44:41.573Z,48.01
2023-04-05T11:49:50.951Z,48.50
2023-04-05T11:54:53.726Z,48.87
2023-04-05T11:59:56.702Z,49.40
2023-04-05T12:05:01.256Z,49.67
2023-04-05T12:10:08.552Z,50.15
2023-04-05T12:15:14.415Z,50.41
2023-04-05T12:20:21.798Z,50.57
2023-04-05T12:25:25.831Z,50.94
2023-04-05T12:30:36.142Z,51.24
2023-04-05T12:35:40.598Z,51.48
2023-04-05T12:40:43.711Z,51.51
2023-04-05T12:45:46.770Z,51.70
2023-04-05T12:50:53.679Z,52.06
2023-04-05T12:55:57.650Z,52.28
2023-04-05T13:01:00.546Z,52.48
2023-04-05T13:06:04.891Z,52.72
2023-04-05T13:11:07.790Z,52.85
2023-04-05T13:16:10.673Z,53.10
2023-04-05T13:21:14.902Z,52.53
2023-04-05T13:26:17.673Z,53.18
2023-04-05T13:31:20.553Z,53.54
2023-04-05T13:36:24.721Z,53.53
2023-04-05T13:41:27.603Z,53.68
2023-04-05T13:46:31.043Z,54.06
2023-04-05T13:51:36.812Z,54.46
2023-04-05T13:56:39.809Z,55.16
2023-04-05T14:01:49.330Z,55.70
2023-04-05T14:06:58.070Z,56.20
2023-04-05T14:12:02.637Z,56.77
2023-04-05T14:17:07.795Z,57.26
2023-04-05T14:22:12.128Z,57.75
2023-04-05T14:27:15.095Z,57.76
2023-04-05T14:32:18.120Z,57.85
2023-04-05T14:37:22.418Z,58.04
2023-04-05T14:42:34.142Z,58.58
2023-04-05T14:47:44.368Z,59.83
2023-04-05T14:52:48.932Z,60.18
2023-04-05T14:57:51.921Z,61.17
2023-04-05T15:02:55.372Z,61.70
2023-04-05T15:07:59.923Z,62.32
2023-04-05T15:18:07.828Z,61.55
2023-04-05T15:23:12.291Z,60.28
2023-04-05T15:28:15.272Z,59.63
2023-04-05T15:33:18.393Z,58.72
2023-04-05T15:38:23.086Z,58.19
2023-04-05T15:43:26.605Z,57.99
2023-04-05T15:48:29.560Z,57.81
2023-04-05T15:53:33.915Z,57.62
2023-04-05T15:58:37.436Z,57.55
2023-04-05T16:03:40.678Z,57.95
2023-04-05T16:08:45.025Z,58.15
2023-04-05T16:13:48.147Z,57.97
2023-04-05T16:18:51.262Z,57.66
2023-04-05T16:23:57.177Z,57.39
2023-04-05T16:29:00.699Z,56.48
2023-04-05T16:34:03.945Z,56.57
2023-04-05T16:39:08.761Z,55.62
2023-04-05T16:44:11.859Z,55.06
2023-04-05T16:49:15.792Z,54.69
2023-04-05T16:54:20.282Z,54.33
2023-04-05T16:59:23.266Z,53.80
2023-04-05T17:04:26.277Z,53.76
2023-04-05T17:09:30.755Z,53.47
2023-04-05T17:14:33.566Z,53.17
2023-04-05T17:19:36.388Z,53.05
2023-04-05T17:24:41.438Z,52.99
2023-04-05T17:29:44.474Z,53.12
2023-04-05T17:34:47.385Z,53.26
2023-04-05T17:39:51.674Z,52.53
2023-04-05T17:44:56.583Z,52.57
2023-04-05T17:49:59.749Z,52.80
2023-04-05T17:55:04.247Z,52.38
2023-04-05T18:00:08.650Z,52.55
2023-04-05T18:05:11.898Z,53.17
2023-04-05T18:14:04.274Z,53.77
2023-04-05T18:19:07.751Z,53.75
2023-04-05T18:24:11.984Z,53.92
2023-04-05T18:29:16.321Z,54.30
2023-04-05T18:34:19.250Z,54.50
2023-04-05T18:39:25.021Z,54.34
2023-04-05T18:44:30.826Z,54.77
2023-04-05T18:49:34.574Z,54.38
2023-04-05T18:54:39.759Z,54.50
2023-04-05T18:59:44.520Z,54.21
2023-04-05T19:04:47.495Z,54.25
2023-04-05T19:09:50.419Z,54.67
2023-04-05T19:14:54.780Z,54.70
2023-04-05T19:19:57.849Z,54.47
2023-04-05T19:25:01.177Z,54.47
2023-04-05T19:30:06.929Z,54.58
2023-04-05T19:35:10.528Z,54.69
2023-04-05T19:40:13.600Z,54.58
2023-04-05T19:45:25.281Z,54.77
2023-04-05T19:50:48.388Z,54.64
2023-04-05T19:55:51.324Z,54.78
2023-04-05T20:00:55.578Z,54.89
2023-04-05T20:06:03.549Z,54.80
2023-04-05T20:11:09.000Z,54.87
2023-04-05T20:16:14.594Z,54.79
2023-04-05T20:21:17.735Z,54.82
2023-04-05T20:26:26.374Z,55.05
2023-04-05T20:31:32.532Z,54.96
2023-04-05T20:36:37.722Z,54.94
2023-04-05T20:41:40.726Z,54.85
2023-04-05T20:46:45.085Z,54.85
2023-04-05T20:51:50.397Z,54.92
2023-04-05T20:56:53.331Z,54.97
2023-04-05T21:01:57.839Z,54.81
2023-04-05T21:07:00.764Z,54.80
2023-04-05T21:12:04.064Z,54.86
2023-04-05T21:17:08.341Z,54.86
2023-04-05T21:22:11.247Z,54.88
2023-04-05T21:27:14.148Z,54.92
2023-04-05T21:32:18.393Z,55.18
2023-04-05T21:37:21.346Z,55.27
2023-04-05T21:42:24.347Z,55.41
2023-04-05T21:47:28.576Z,55.48
2023-04-05T21:52:31.587Z,55.58
2023-04-05T21:57:34.599Z,55.84
2023-04-05T22:02:39.275Z,55.80
2023-04-05T22:07:42.209Z,56.05
2023-04-05T22:12:45.373Z,56.22
2023-04-05T22:17:49.697Z,56.20
2023-04-05T22:22:52.875Z,56.29
2023-04-05T22:27:59.760Z,56.36
2023-04-05T22:33:04.401Z,56.39
2023-04-05T22:38:07.342Z,56.33
2023-04-05T22:43:11.742Z,56.49
2023-04-05T22:48:16.026Z,56.88
2023-04-05T22:53:19.006Z,57.13
2023-04-05T22:58:22.483Z,57.27
2023-04-05T23:03:26.791Z,57.52
2023-04-05T23:08:29.853Z,57.96
2023-04-05T23:13:32.744Z,58.22
2023-04-05T23:18:36.974Z,58.44
2023-04-05T23:23:39.864Z,58.70
2023-04-05T23:28:42.730Z,58.79
2023-04-05T23:33:46.955Z,59.01
2023-04-05T23:38:49.862Z,59.26
2023-04-05T23:43:52.916Z,59.46
2023-04-05T23:48:57.308Z,59.38
2023-04-05T23:54:00.356Z,59.50
2023-04-05T23:59:03.295Z,59.81
